Bonum — CRA5490 — position and weather

sailwx.info

Track history (hours):
 
Tides and Currents Weather Stations Pressure Air Temp Water Temp Dewpoint Dewpoint Depression Visibility Wind Speed Wind Dir Waves Ship Positions

Bonum

Last reported at 2017-Jul-29 06:07 UTC. Time now 2017-Aug-21 21:43 UTC.
Position N 39°44' E 018°19'.
Warning: this ship's position is 23 days out of date.

Length 38 m; draft 3.2 m.

MMSI: 255910770.

Date/timePositionNaut miles runAvg speedWind from/ knotsBaromVisibWave heightAir tempDewpointWater temp
2017-Jul-29 06:07N 39°44' E 018°19'110.7
2017-Jul-29 06:00N 39°43' E 018°17'510.9
2017-Jul-29 05:30N 39°39' E 018°13'510.8
2017-Jul-29 05:00N 39°35' E 018°08'510.9
2017-Jul-29 04:30N 39°31' E 018°03'510.8
2017-Jul-29 04:00N 39°27' E 017°58'510.7
2017-Jul-29 03:30N 39°23' E 017°54'3110.5
2017-Jul-29 00:31N 39°00' E 017°26'0 9.1
2017-Jul-29 00:30N 38°60' E 017°26'9610.6
2017-Jul-28 15:32N 37°53' E 015°58'0 9.9
2017-Jul-28 15:29N 37°53' E 015°58'510.2
2017-Jul-28 15:00N 37°53' E 015°51'6 9.8
2017-Jul-28 14:26N 37°54' E 015°45'4 9.3
2017-Jul-28 14:00N 37°56' E 015°40'5 9.7
2017-Jul-28 13:30N 38°00' E 015°37'611.9
2017-Jul-28 13:01N 38°06' E 015°36'713.2
2017-Jul-28 12:30N 38°13' E 015°36'5 9.9
2017-Jul-28 12:00N 38°17' E 015°38'611.6
2017-Jul-28 11:29N 38°20' E 015°31'611.8
2017-Jul-28 11:00N 38°23' E 015°25'611.6
2017-Jul-28 10:29N 38°25' E 015°18'511.1
2017-Jul-28 10:00N 38°28' E 015°12'611.1
2017-Jul-28 09:30N 38°30' E 015°06'611.3
2017-Jul-28 09:00N 38°33' E 014°59'  
2017-Jul-23 18:44N 40°55' E 009°32'310.4
2017-Jul-23 18:24N 40°56' E 009°36'410.3
2017-Jul-23 18:00N 40°59' E 009°41'510.7
2017-Jul-23 17:30N 41°04' E 009°38'610.2
2017-Jul-23 16:54N 41°09' E 009°33'  
2017-Jul-19 10:55N 41°58' E 009°41'1910.5
2017-Jul-19 09:08N 42°13' E 009°57'310.7
2017-Jul-19 08:51N 42°15' E 009°59'810.7
2017-Jul-19 08:05N 42°22' E 010°06'310.7
2017-Jul-19 07:47N 42°24' E 010°08'  
Track history (hours):
 
Tides and Currents Weather Stations Pressure Air Temp Water Temp Dewpoint Dewpoint Depression Visibility Wind Speed Wind Dir Waves Ship Positions

Bonum

Last reported at 2017-Jul-29 06:07 UTC. Time now 2017-Aug-21 21:43 UTC.
Position N 39°44' E 018°19'.
Warning: this ship's position is 23 days out of date.

Length 38 m; draft 3.2 m.

MMSI: 255910770.

Date/timePositionNaut miles runAvg speedWind from/ knotsBaromVisibWave heightAir tempDewpointWater temp
2017-Jul-29 06:07N 39°44' E 018°19'110.7
2017-Jul-29 06:00N 39°43' E 018°17'510.9
2017-Jul-29 05:30N 39°39' E 018°13'510.8
2017-Jul-29 05:00N 39°35' E 018°08'510.9
2017-Jul-29 04:30N 39°31' E 018°03'510.8
2017-Jul-29 04:00N 39°27' E 017°58'510.7
2017-Jul-29 03:30N 39°23' E 017°54'3110.5
2017-Jul-29 00:31N 39°00' E 017°26'0 9.1
2017-Jul-29 00:30N 38°60' E 017°26'9610.6
2017-Jul-28 15:32N 37°53' E 015°58'0 9.9
2017-Jul-28 15:29N 37°53' E 015°58'510.2
2017-Jul-28 15:00N 37°53' E 015°51'6 9.8
2017-Jul-28 14:26N 37°54' E 015°45'4 9.3
2017-Jul-28 14:00N 37°56' E 015°40'5 9.7
2017-Jul-28 13:30N 38°00' E 015°37'611.9
2017-Jul-28 13:01N 38°06' E 015°36'713.2
2017-Jul-28 12:30N 38°13' E 015°36'5 9.9
2017-Jul-28 12:00N 38°17' E 015°38'611.6
2017-Jul-28 11:29N 38°20' E 015°31'611.8
2017-Jul-28 11:00N 38°23' E 015°25'611.6
2017-Jul-28 10:29N 38°25' E 015°18'511.1
2017-Jul-28 10:00N 38°28' E 015°12'611.1
2017-Jul-28 09:30N 38°30' E 015°06'611.3
2017-Jul-28 09:00N 38°33' E 014°59'  
2017-Jul-23 18:44N 40°55' E 009°32'310.4
2017-Jul-23 18:24N 40°56' E 009°36'410.3
2017-Jul-23 18:00N 40°59' E 009°41'510.7
2017-Jul-23 17:30N 41°04' E 009°38'610.2
2017-Jul-23 16:54N 41°09' E 009°33'  
2017-Jul-19 10:55N 41°58' E 009°41'1910.5
2017-Jul-19 09:08N 42°13' E 009°57'310.7
2017-Jul-19 08:51N 42°15' E 009°59'810.7
2017-Jul-19 08:05N 42°22' E 010°06'310.7
2017-Jul-19 07:47N 42°24' E 010°08'  

Dump ship's entire track history